Time;durP1;ratioP1;P1;durP2;ratioP2;P2;SDS_P1;SDS_P2;PMS_P1;PMS_P2;Temp;Humidity;BMP_temperature;BMP_pressure;BME280_temperature;BME280_humidity;BME280_pressure;Samples;Min_cycle;Max_cycle;Signal;HPM_P1;HPM_P2
2023/04/25 00:01:45;;;;;;;3.57;3.13;;;9.50;75.10;;;;;;5051892;28;20233;-77
2023/04/25 00:04:11;;;;;;;5.10;2.73;;;9.50;74.90;;;;;;5054791;28;20477;-76
2023/04/25 00:06:37;;;;;;;4.33;2.67;;;9.50;74.90;;;;;;5055350;28;20640;-77
2023/04/25 00:09:09;;;;;;;2.70;2.20;;;9.50;74.90;;;;;;5050230;28;20455;-78
2023/04/25 00:11:36;;;;;;;3.40;2.30;;;9.60;75.20;;;;;;5055224;28;20204;-77
2023/04/25 00:14:02;;;;;;;3.17;2.60;;;9.60;74.90;;;;;;5055168;28;20462;-79
2023/04/25 00:16:29;;;;;;;4.30;2.50;;;9.50;74.50;;;;;;5036945;28;20453;-76
2023/04/25 00:18:54;;;;;;;3.10;2.37;;;9.50;74.80;;;;;;5032739;28;20486;-78
2023/04/25 00:21:20;;;;;;;5.63;2.33;;;9.40;74.80;;;;;;5054946;28;20465;-78
2023/04/25 00:23:46;;;;;;;4.53;2.70;;;9.50;74.80;;;;;;5054304;28;20291;-76
2023/04/25 00:26:12;;;;;;;3.53;2.60;;;9.60;74.30;;;;;;5054226;28;21172;-75
2023/04/25 00:28:39;;;;;;;4.87;2.60;;;9.60;74.20;;;;;;5057372;28;20501;-76
2023/04/25 00:31:04;;;;;;;4.57;2.30;;;9.50;74.50;;;;;;5062800;28;20836;-76
2023/04/25 00:33:30;;;;;;;3.53;2.90;;;9.60;74.80;;;;;;5058538;28;20480;-75
2023/04/25 00:35:56;;;;;;;4.47;2.70;;;9.70;74.50;;;;;;5042880;28;20532;-76
2023/04/25 00:38:22;;;;;;;5.63;3.00;;;9.80;74.60;;;;;;5055248;28;20196;-75
2023/04/25 00:40:47;;;;;;;4.70;3.10;;;9.70;74.50;;;;;;5053967;28;20552;-76
2023/04/25 00:43:13;;;;;;;3.83;2.57;;;9.60;75.10;;;;;;5053793;28;20188;-77
2023/04/25 00:45:39;;;;;;;4.00;2.67;;;9.70;75.10;;;;;;5054400;28;20188;-77
2023/04/25 00:48:05;;;;;;;3.93;2.80;;;9.70;74.90;;;;;;5051260;28;20283;-75
2023/04/25 00:50:33;;;;;;;4.80;3.03;;;9.80;74.90;;;;;;5036772;28;20459;-76
2023/04/25 00:53:00;;;;;;;3.80;2.70;;;9.90;74.90;;;;;;5054826;28;20473;-78
2023/04/25 00:55:27;;;;;;;4.60;2.70;;;9.80;75.10;;;;;;5053672;28;20411;-77
2023/04/25 00:57:52;;;;;;;5.17;2.80;;;9.80;75.10;;;;;;5045535;28;20447;-78
2023/04/25 01:00:19;;;;;;;6.33;3.03;;;9.80;74.60;;;;;;5054614;28;20425;-76
2023/04/25 01:02:45;;;;;;;3.37;2.30;;;9.70;74.30;;;;;;5054134;28;20181;-76
2023/04/25 01:05:11;;;;;;;4.07;2.53;;;9.60;74.80;;;;;;5035731;28;20425;-75
2023/04/25 01:07:37;;;;;;;4.07;2.63;;;9.60;74.90;;;;;;5048701;28;20464;-78
2023/04/25 01:10:04;;;;;;;5.43;3.03;;;9.60;75.10;;;;;;5048642;28;20422;-77
2023/04/25 01:12:30;;;;;;;4.00;2.90;;;9.70;75.20;;;;;;5069733;28;20476;-76
2023/04/25 01:14:56;;;;;;;4.90;2.90;;;9.60;75.20;;;;;;5072483;28;20427;-76
2023/04/25 01:17:21;;;;;;;6.63;3.20;;;9.60;75.40;;;;;;5072862;28;20443;-77
2023/04/25 01:19:48;;;;;;;4.10;3.07;;;9.50;75.50;;;;;;5070938;28;20185;-76
2023/04/25 01:22:14;;;;;;;4.20;2.80;;;9.50;75.70;;;;;;5057849;28;20219;-78
2023/04/25 01:24:40;;;;;;;5.20;3.17;;;9.50;75.80;;;;;;5072880;28;20419;-79
2023/04/25 01:27:06;;;;;;;3.37;2.80;;;9.50;75.90;;;;;;5056724;28;20592;-78
2023/04/25 01:29:32;;;;;;;4.77;3.10;;;9.60;75.90;;;;;;5074065;28;20380;-78
2023/04/25 01:31:59;;;;;;;4.20;3.50;;;9.60;75.90;;;;;;5068549;28;20478;-76
2023/04/25 01:34:25;;;;;;;3.37;2.80;;;9.50;76.20;;;;;;5036176;28;20439;-77
2023/04/25 01:36:51;;;;;;;4.80;3.30;;;9.40;76.50;;;;;;5054689;28;20506;-76
2023/04/25 01:39:20;;;;;;;5.53;3.50;;;9.40;77.00;;;;;;5035038;28;20435;-76
2023/04/25 01:41:47;;;;;;;4.40;3.20;;;9.40;77.10;;;;;;5036699;28;20423;-76
2023/04/25 01:44:13;;;;;;;4.50;3.10;;;9.50;77.10;;;;;;5055284;28;20458;-76
2023/04/25 01:46:39;;;;;;;7.00;3.23;;;9.50;77.30;;;;;;5054476;28;20488;-77
2023/04/25 01:49:05;;;;;;;5.30;3.50;;;9.50;77.40;;;;;;5034960;28;20961;-79
2023/04/25 01:51:31;;;;;;;4.20;3.50;;;9.40;77.60;;;;;;5052821;28;20376;-77
2023/04/25 01:53:57;;;;;;;4.87;3.40;;;9.40;77.70;;;;;;5053391;28;20188;-76
2023/04/25 01:56:22;;;;;;;7.23;4.07;;;9.40;77.70;;;;;;5053422;28;20921;-77
2023/04/25 01:58:49;;;;;;;4.67;3.20;;;9.40;77.70;;;;;;5052343;28;20459;-77
2023/04/25 02:01:14;;;;;;;5.57;3.40;;;9.40;77.80;;;;;;5053613;28;20465;-76
2023/04/25 02:03:40;;;;;;;5.23;3.27;;;9.30;78.10;;;;;;5053014;28;21012;-78
2023/04/25 02:06:05;;;;;;;5.73;3.40;;;9.30;78.10;;;;;;5064090;28;20238;-76
2023/04/25 02:08:31;;;;;;;4.10;3.27;;;9.20;78.60;;;;;;5065616;28;20272;-78
2023/04/25 02:10:57;;;;;;;7.43;3.70;;;9.30;78.70;;;;;;5064745;28;20559;-75
2023/04/25 02:13:23;;;;;;;5.67;3.67;;;9.30;78.10;;;;;;5053961;28;20191;-76
2023/04/25 02:15:48;;;;;;;5.37;3.17;;;9.20;78.00;;;;;;5054034;28;20893;-77
2023/04/25 02:18:15;;;;;;;4.17;3.17;;;9.20;78.00;;;;;;5054111;28;20207;-76
2023/04/25 02:20:42;;;;;;;7.40;3.43;;;9.20;78.00;;;;;;5037161;28;20907;-75
2023/04/25 02:23:07;;;;;;;4.00;2.97;;;9.10;78.10;;;;;;5054627;28;20447;-77
2023/04/25 02:25:33;;;;;;;9.10;3.27;;;9.10;78.30;;;;;;5055981;28;20795;-77
2023/04/25 02:27:59;;;;;;;5.83;3.17;;;9.00;78.10;;;;;;5056140;28;20204;-78
2023/04/25 02:30:24;;;;;;;4.27;3.37;;;9.00;78.10;;;;;;5056590;28;20256;-76
2023/04/25 02:32:50;;;;;;;5.60;2.87;;;9.00;77.80;;;;;;5058058;28;20208;-76
2023/04/25 02:35:16;;;;;;;5.57;3.17;;;9.00;77.30;;;;;;5064310;28;20183;-76
2023/04/25 02:37:42;;;;;;;6.10;3.10;;;9.00;77.30;;;;;;5055511;28;20244;-76
2023/04/25 02:40:08;;;;;;;3.50;3.10;;;9.00;77.10;;;;;;5070273;28;20196;-76
2023/04/25 02:42:33;;;;;;;4.70;2.77;;;8.90;77.10;;;;;;5070324;28;20429;-77
2023/04/25 02:44:59;;;;;;;5.10;3.20;;;9.00;77.10;;;;;;5053038;28;20501;-76
2023/04/25 02:47:25;;;;;;;3.40;2.80;;;9.00;77.40;;;;;;5034108;28;20200;-76
2023/04/25 02:49:50;;;;;;;6.17;3.40;;;9.10;77.70;;;;;;5052062;28;20184;-77
2023/04/25 02:52:16;;;;;;;4.50;3.37;;;9.10;77.60;;;;;;5051787;28;20236;-77
2023/04/25 02:54:42;;;;;;;5.93;3.77;;;9.00;77.70;;;;;;5033824;28;20188;-76
2023/04/25 02:57:07;;;;;;;6.00;3.20;;;9.00;78.00;;;;;;5051346;28;20212;-76
2023/04/25 02:59:33;;;;;;;6.37;3.20;;;8.90;78.00;;;;;;5034144;28;20211;-77
2023/04/25 03:01:59;;;;;;;4.73;3.00;;;8.80;78.70;;;;;;5052252;28;20239;-77
2023/04/25 03:04:25;;;;;;;5.40;3.00;;;8.80;78.10;;;;;;5052154;28;20925;-76
2023/04/25 03:06:51;;;;;;;5.30;3.30;;;8.80;78.30;;;;;;5037105;28;20262;-76
2023/04/25 03:09:17;;;;;;;5.17;3.33;;;8.90;78.30;;;;;;5054147;28;20531;-77
2023/04/25 03:11:44;;;;;;;3.53;2.77;;;8.90;78.40;;;;;;5053876;28;21049;-76
2023/04/25 03:14:10;;;;;;;5.80;3.03;;;9.00;78.30;;;;;;5056184;28;20552;-76
2023/04/25 03:16:36;;;;;;;4.73;3.10;;;9.00;78.00;;;;;;5055087;28;20426;-76
2023/04/25 03:19:03;;;;;;;4.93;2.70;;;9.00;77.70;;;;;;5049240;28;20455;-76
2023/04/25 03:21:29;;;;;;;5.63;3.60;;;9.00;77.70;;;;;;5053701;28;20232;-78
2023/04/25 03:23:54;;;;;;;6.17;2.93;;;9.10;77.30;;;;;;5053180;28;20423;-77
2023/04/25 03:26:20;;;;;;;5.80;3.57;;;9.10;77.30;;;;;;5053984;28;20437;-76
2023/04/25 03:28:46;;;;;;;5.33;2.70;;;9.20;77.10;;;;;;5054381;28;20232;-77
2023/04/25 03:31:11;;;;;;;8.13;2.80;;;9.10;76.50;;;;;;5055806;28;20760;-77
2023/04/25 03:33:37;;;;;;;7.40;3.30;;;9.00;76.80;;;;;;5038309;28;20184;-75
2023/04/25 03:36:03;;;;;;;7.73;3.13;;;9.00;76.80;;;;;;5055855;28;20810;-77
2023/04/25 03:38:28;;;;;;;4.63;2.73;;;9.00;77.30;;;;;;5054899;28;20208;-76
2023/04/25 03:40:55;;;;;;;4.23;2.73;;;9.00;77.00;;;;;;5060825;28;20427;-77
2023/04/25 03:43:21;;;;;;;5.70;3.00;;;9.00;76.70;;;;;;5060219;28;20199;-75
2023/04/25 03:45:47;;;;;;;4.70;2.87;;;8.90;76.70;;;;;;5059762;28;20510;-75
2023/04/25 03:48:12;;;;;;;5.70;3.17;;;8.90;76.80;;;;;;5059654;28;20243;-76
2023/04/25 03:50:38;;;;;;;4.37;3.17;;;9.00;77.30;;;;;;5061335;28;20215;-76
2023/04/25 03:53:04;;;;;;;4.33;2.70;;;9.00;77.40;;;;;;5062814;28;20216;-77
2023/04/25 03:55:29;;;;;;;6.43;3.33;;;9.00;77.40;;;;;;5061310;28;20260;-75
2023/04/25 03:57:55;;;;;;;4.67;3.50;;;9.00;77.10;;;;;;5043764;28;20267;-78
2023/04/25 04:00:20;;;;;;;4.00;2.70;;;9.10;77.10;;;;;;5058747;28;20192;-77
2023/04/25 04:02:46;;;;;;;6.43;3.80;;;9.00;77.30;;;;;;5055911;28;20699;-75
2023/04/25 04:05:12;;;;;;;5.27;3.03;;;9.00;77.30;;;;;;5055484;28;20191;-77
2023/04/25 04:07:39;;;;;;;5.67;3.50;;;9.00;77.30;;;;;;5054923;28;20208;-76
2023/04/25 04:10:11;;;;;;;4.30;3.00;;;8.90;77.60;;;;;;5055951;28;20223;-76
2023/04/25 04:12:37;;;;;;;5.00;3.20;;;8.80;78.10;;;;;;5056426;28;20471;-77
2023/04/25 04:15:04;;;;;;;7.10;3.53;;;8.80;78.60;;;;;;5056636;28;20805;-76
2023/04/25 04:17:30;;;;;;;6.60;3.97;;;8.70;79.00;;;;;;5055402;28;20529;-77
2023/04/25 04:19:56;;;;;;;5.10;3.20;;;8.70;79.20;;;;;;5056157;28;20443;-77
2023/04/25 04:22:22;;;;;;;4.80;3.57;;;8.70;79.20;;;;;;5041347;28;20188;-74
2023/04/25 04:24:49;;;;;;;3.63;2.73;;;8.60;78.90;;;;;;5057313;28;20184;-76
2023/04/25 04:27:19;;;;;;;7.90;3.73;;;8.60;79.00;;;;;;5053050;28;21117;-76
2023/04/25 04:29:45;;;;;;;9.33;3.97;;;8.70;79.00;;;;;;5037871;28;20422;-76
2023/04/25 04:32:11;;;;;;;6.90;3.20;;;8.70;78.90;;;;;;5055198;28;20838;-77
2023/04/25 04:34:37;;;;;;;5.13;3.00;;;8.60;78.40;;;;;;5054523;28;20427;-76
2023/04/25 04:37:02;;;;;;;5.40;3.80;;;8.60;78.90;;;;;;5053085;28;20841;-75
2023/04/25 04:39:28;;;;;;;7.10;3.80;;;8.60;79.00;;;;;;5053948;28;20188;-75
2023/04/25 04:41:54;;;;;;;4.20;3.47;;;8.60;78.90;;;;;;5054227;28;20568;-77
2023/04/25 04:44:19;;;;;;;6.30;3.40;;;8.60;79.00;;;;;;5054238;28;20211;-74
2023/04/25 04:46:46;;;;;;;5.97;3.47;;;8.60;79.20;;;;;;5054235;28;20544;-76
2023/04/25 04:49:13;;;;;;;5.40;3.40;;;8.70;79.20;;;;;;5053011;28;20216;-75
2023/04/25 04:51:40;;;;;;;7.47;4.10;;;8.80;79.30;;;;;;5035834;28;20458;-76
2023/04/25 04:54:05;;;;;;;5.17;3.57;;;8.80;78.70;;;;;;5054872;28;20450;-76
2023/04/25 04:56:31;;;;;;;5.63;3.50;;;8.70;78.70;;;;;;5055250;28;20999;-77
2023/04/25 04:58:57;;;;;;;5.57;3.63;;;8.80;78.90;;;;;;5051273;28;20744;-75
2023/04/25 05:01:26;;;;;;;5.87;3.10;;;8.80;79.00;;;;;;5035462;28;20439;-78
2023/04/25 05:03:59;;;;;;;4.90;3.77;;;8.80;78.90;;;;;;5054644;28;20851;-76
2023/04/25 05:06:44;;;;;;;7.07;4.37;;;8.90;78.60;;;;;;5032100;28;20431;-77
2023/04/25 05:09:10;;;;;;;4.87;3.23;;;8.90;78.70;;;;;;5049096;28;20465;-76
2023/04/25 05:11:35;;;;;;;5.67;3.80;;;8.90;78.30;;;;;;5052367;28;20466;-76
2023/04/25 05:14:01;;;;;;;5.43;3.53;;;8.80;78.60;;;;;;5052349;28;21650;-76
2023/04/25 05:16:27;;;;;;;5.33;3.50;;;8.90;78.40;;;;;;5053514;28;20184;-76
2023/04/25 05:18:52;;;;;;;4.40;3.13;;;8.90;78.10;;;;;;5046587;28;20205;-77
2023/04/25 05:21:18;;;;;;;8.00;3.60;;;8.90;78.00;;;;;;5057084;28;20197;-76
2023/04/25 05:23:43;;;;;;;4.80;3.27;;;9.00;77.80;;;;;;5042971;28;20189;-78
2023/04/25 05:26:13;;;;;;;7.10;4.23;;;9.00;77.80;;;;;;5056922;28;20273;-76
2023/04/25 05:28:40;;;;;;;7.70;3.93;;;9.00;77.70;;;;;;5054412;28;20212;-77
2023/04/25 05:31:06;;;;;;;6.50;3.77;;;9.00;77.60;;;;;;5056199;28;20479;-76
2023/04/25 05:33:32;;;;;;;5.77;3.67;;;9.10;77.40;;;;;;5057394;28;20435;-75
2023/04/25 05:35:57;;;;;;;6.80;3.57;;;9.00;77.60;;;;;;5053847;28;20440;-77
2023/04/25 05:38:23;;;;;;;39.60;7.47;;;9.20;77.40;;;;;;5052383;28;20471;-76
2023/04/25 05:40:48;;;;;;;16.70;6.30;;;9.30;76.50;;;;;;5057621;28;20181;-76
2023/04/25 05:43:14;;;;;;;7.40;3.70;;;9.40;76.20;;;;;;5054691;28;20216;-76
2023/04/25 05:45:39;;;;;;;25.73;8.63;;;9.50;75.20;;;;;;5053940;28;20196;-76
2023/04/25 05:48:05;;;;;;;263.43;36.63;;;9.50;75.20;;;;;;5034089;28;20204;-75
2023/04/25 05:50:31;;;;;;;29.03;6.67;;;9.50;74.00;;;;;;5056511;28;20188;-74
2023/04/25 05:52:56;;;;;;;95.77;15.00;;;9.50;73.70;;;;;;5038254;28;20306;-77
2023/04/25 05:55:22;;;;;;;10.73;5.10;;;9.60;73.70;;;;;;5054002;28;20184;-77
2023/04/25 05:57:47;;;;;;;5.83;3.90;;;9.70;73.70;;;;;;5053871;28;20252;-77
2023/04/25 06:00:15;;;;;;;5.60;3.47;;;9.60;73.30;;;;;;5038965;28;20183;-76
2023/04/25 06:02:41;;;;;;;5.57;3.37;;;9.50;73.50;;;;;;5058512;28;20283;-76
2023/04/25 06:05:07;;;;;;;16.10;4.20;;;9.40;73.20;;;;;;5059470;28;20470;-76
2023/04/25 06:07:33;;;;;;;6.63;3.47;;;9.40;73.50;;;;;;5057798;28;20213;-76
2023/04/25 06:10:00;;;;;;;5.10;2.90;;;9.30;73.00;;;;;;5060353;28;20458;-77
2023/04/25 06:12:26;;;;;;;78.87;12.83;;;9.30;73.30;;;;;;5062028;28;20223;-77
2023/04/25 06:14:51;;;;;;;9.83;3.60;;;9.30;73.50;;;;;;5065804;28;20431;-76
2023/04/25 06:17:17;;;;;;;4.43;3.20;;;9.20;73.30;;;;;;5044049;28;20213;-75
2023/04/25 06:19:42;;;;;;;6.93;4.10;;;9.10;73.90;;;;;;5060374;28;20242;-75
2023/04/25 06:22:08;;;;;;;15.10;4.70;;;9.10;74.60;;;;;;5059280;28;20195;-76
2023/04/25 06:24:34;;;;;;;15.60;5.17;;;9.10;74.80;;;;;;5057828;28;20203;-77
2023/04/25 06:27:00;;;;;;;9.23;3.17;;;9.30;74.90;;;;;;5060914;28;20180;-73
2023/04/25 06:29:25;;;;;;;5.37;3.30;;;9.40;73.90;;;;;;5059750;28;20454;-74
2023/04/25 06:31:51;;;;;;;6.50;3.70;;;9.50;73.60;;;;;;5060930;28;20215;-77
2023/04/25 06:34:17;;;;;;;4.70;3.10;;;9.50;73.60;;;;;;5062464;28;20242;-76
2023/04/25 06:36:44;;;;;;;5.00;3.07;;;9.60;73.50;;;;;;5048893;28;20616;-76
2023/04/25 06:39:10;;;;;;;5.37;3.40;;;9.70;73.90;;;;;;5047353;28;20200;-76
2023/04/25 06:41:36;;;;;;;7.30;3.70;;;9.60;74.90;;;;;;5067537;28;20435;-74
2023/04/25 06:44:01;;;;;;;5.97;3.90;;;9.40;75.80;;;;;;5063805;28;20466;-76
2023/04/25 06:46:27;;;;;;;5.83;3.93;;;9.20;77.10;;;;;;5062210;28;20203;-75
2023/04/25 06:48:53;;;;;;;21.60;6.03;;;8.90;78.40;;;;;;5040687;28;20232;-76
2023/04/25 06:51:18;;;;;;;8.13;4.00;;;8.80;79.50;;;;;;5061649;28;20205;-76
2023/04/25 06:53:44;;;;;;;19.40;4.60;;;8.50;80.50;;;;;;5061638;28;20227;-76
2023/04/25 06:56:09;;;;;;;48.20;7.93;;;8.50;81.50;;;;;;5060105;28;20225;-75
2023/04/25 06:58:35;;;;;;;6.20;3.50;;;8.60;81.80;;;;;;5056645;28;20208;-77
2023/04/25 07:01:01;;;;;;;5.10;3.27;;;8.70;81.70;;;;;;5059359;28;20426;-77
2023/04/25 07:03:26;;;;;;;8.97;3.70;;;8.60;79.70;;;;;;5043375;28;20180;-74
2023/04/25 07:05:52;;;;;;;7.20;4.00;;;8.60;79.70;;;;;;5058486;28;20199;-75
2023/04/25 07:08:17;;;;;;;5.73;3.57;;;8.70;80.20;;;;;;5052328;28;20615;-75
2023/04/25 07:10:43;;;;;;;11.33;4.20;;;8.80;79.90;;;;;;5054091;28;20244;-76
2023/04/25 07:13:08;;;;;;;7.73;4.23;;;8.80;79.60;;;;;;5055588;28;20211;-75
2023/04/25 07:15:34;;;;;;;7.23;3.80;;;8.90;80.30;;;;;;5054419;28;20197;-77
2023/04/25 07:18:00;;;;;;;5.97;4.17;;;8.90;80.80;;;;;;5043371;28;20683;-75
2023/04/25 07:20:27;;;;;;;6.97;4.77;;;8.90;81.40;;;;;;5051270;28;20419;-76
2023/04/25 07:22:53;;;;;;;9.67;4.73;;;8.70;81.50;;;;;;5051341;28;20180;-77
2023/04/25 07:25:19;;;;;;;5.90;3.97;;;8.60;82.50;;;;;;5051589;28;20426;-75
2023/04/25 07:27:45;;;;;;;7.47;5.20;;;8.50;83.10;;;;;;5049107;28;20212;-76
2023/04/25 07:30:11;;;;;;;6.80;4.67;;;8.50;83.30;;;;;;5071287;28;20443;-75
2023/04/25 07:32:38;;;;;;;6.63;4.23;;;8.50;83.70;;;;;;5070550;28;20212;-76
2023/04/25 07:35:04;;;;;;;10.40;5.10;;;8.50;84.10;;;;;;5069211;28;20423;-75
2023/04/25 07:37:29;;;;;;;7.23;4.90;;;8.50;84.60;;;;;;5067543;28;20470;-74
2023/04/25 07:39:55;;;;;;;9.83;5.57;;;8.50;84.70;;;;;;5069098;28;20419;-77
2023/04/25 07:42:21;;;;;;;7.60;4.60;;;8.40;84.90;;;;;;5070230;28;20193;-75
2023/04/25 07:44:47;;;;;;;9.07;5.00;;;8.40;85.60;;;;;;5058899;28;20667;-76
2023/04/25 07:47:13;;;;;;;8.47;5.43;;;8.40;86.30;;;;;;5049456;28;20518;-76
2023/04/25 07:49:39;;;;;;;8.07;4.70;;;8.30;86.60;;;;;;5049519;28;20422;-78
2023/04/25 07:52:08;;;;;;;11.13;5.90;;;8.30;87.00;;;;;;5051235;28;20470;-75
2023/04/25 07:54:35;;;;;;;7.73;5.23;;;8.40;87.40;;;;;;5051125;28;20553;-76
2023/04/25 07:57:00;;;;;;;8.23;5.30;;;8.40;87.40;;;;;;5032575;28;20431;-73
2023/04/25 07:59:26;;;;;;;10.83;5.60;;;8.40;87.00;;;;;;5047935;28;20435;-76
2023/04/25 08:01:51;;;;;;;8.73;5.50;;;8.30;86.90;;;;;;5050674;28;20181;-76
2023/04/25 08:04:17;;;;;;;10.17;5.80;;;8.30;86.90;;;;;;5050698;28;20735;-77
2023/04/25 08:06:43;;;;;;;10.47;6.53;;;8.30;86.80;;;;;;5050864;28;20184;-76
2023/04/25 08:09:09;;;;;;;1228.93;183.00;;;8.30;86.90;;;;;;5047200;28;20586;-76
2023/04/25 08:11:35;;;;;;;15.23;6.30;;;8.30;87.10;;;;;;5056714;28;20212;-74
2023/04/25 08:14:01;;;;;;;13.37;6.33;;;8.40;87.40;;;;;;5053994;28;20411;-74
2023/04/25 08:16:27;;;;;;;11.27;7.00;;;8.40;87.80;;;;;;5058984;28;20411;-76
2023/04/25 08:18:53;;;;;;;16.93;6.23;;;8.30;88.00;;;;;;5058478;28;20481;-75
2023/04/25 08:21:18;;;;;;;10.90;6.00;;;8.30;88.40;;;;;;5053658;28;20191;-76
2023/04/25 08:23:44;;;;;;;10.50;6.07;;;8.20;88.30;;;;;;5051275;28;20419;-76
2023/04/25 08:26:09;;;;;;;9.57;6.00;;;8.20;88.40;;;;;;5055722;28;20184;-77
2023/04/25 08:28:35;;;;;;;9.73;5.77;;;8.20;88.90;;;;;;5052169;28;20726;-76
2023/04/25 08:31:00;;;;;;;9.70;5.50;;;8.20;88.90;;;;;;5055957;28;20561;-76
2023/04/25 08:33:26;;;;;;;11.60;5.43;;;8.20;88.60;;;;;;5055984;28;20263;-76
2023/04/25 08:35:52;;;;;;;8.67;5.83;;;8.20;88.70;;;;;;5055638;28;20184;-76
2023/04/25 08:38:17;;;;;;;10.07;6.20;;;8.20;89.00;;;;;;5053316;28;20216;-76
2023/04/25 08:40:43;;;;;;;10.40;5.50;;;8.10;89.50;;;;;;5055499;28;20192;-74
2023/04/25 08:43:15;;;;;;;12.70;5.60;;;8.10;89.70;;;;;;5055017;28;20203;-77
2023/04/25 08:45:42;;;;;;;11.13;5.73;;;8.10;89.60;;;;;;5055316;28;20423;-75
2023/04/25 08:48:11;;;;;;;10.17;6.57;;;8.00;89.60;;;;;;5035186;28;20473;-76
2023/04/25 08:50:59;;;;;;;12.70;6.57;;;8.00;89.70;;;;;;5036515;28;20450;-75
2023/04/25 08:53:27;;;;;;;9.57;5.20;;;8.10;90.10;;;;;;5053221;28;21120;-75
2023/04/25 08:55:55;;;;;;;15.30;7.43;;;8.10;90.00;;;;;;5053406;28;20930;-75
2023/04/25 08:58:21;;;;;;;8.90;5.90;;;8.10;89.90;;;;;;5050315;28;20850;-75
2023/04/25 09:00:47;;;;;;;11.50;6.10;;;8.10;89.70;;;;;;5046052;28;20423;-76
2023/04/25 09:03:13;;;;;;;10.17;5.30;;;8.00;89.50;;;;;;5053816;28;20844;-75
2023/04/25 09:05:41;;;;;;;10.67;5.53;;;8.00;89.50;;;;;;5052501;28;20427;-75
2023/04/25 09:08:07;;;;;;;9.50;5.83;;;8.00;89.60;;;;;;5050131;28;20622;-77
2023/04/25 09:10:33;;;;;;;10.50;6.90;;;7.90;89.90;;;;;;5037110;28;20454;-76
2023/04/25 09:13:14;;;;;;;14.47;7.10;;;7.90;90.10;;;;;;5060240;28;20455;-76
2023/04/25 09:15:52;;;;;;;10.80;6.10;;;7.90;90.20;;;;;;5053859;28;20407;-76
2023/04/25 09:18:29;;;;;;;11.30;5.20;;;8.00;90.20;;;;;;5049211;28;20477;-76
2023/04/25 09:20:57;;;;;;;11.03;6.20;;;8.00;90.40;;;;;;5048200;28;20411;-76
2023/04/25 09:23:23;;;;;;;8.80;5.40;;;7.90;90.40;;;;;;5052985;28;20786;-76
2023/04/25 09:25:53;;;;;;;12.80;6.10;;;7.90;90.40;;;;;;5052663;28;20423;-75
2023/04/25 09:28:26;;;;;;;10.63;5.90;;;7.80;90.50;;;;;;5047425;28;20239;-75
2023/04/25 09:30:56;;;;;;;8.27;5.50;;;7.90;90.50;;;;;;5053915;28;20840;-76
2023/04/25 09:33:31;;;;;;;11.67;6.27;;;7.80;90.50;;;;;;5054053;28;20496;-75
2023/04/25 09:36:05;;;;;;;12.40;6.40;;;7.80;90.80;;;;;;5052132;28;20460;-75
2023/04/25 09:38:32;;;;;;;10.17;6.47;;;7.80;90.90;;;;;;5049263;28;20450;-75
2023/04/25 09:41:00;;;;;;;11.27;7.30;;;7.70;91.00;;;;;;5052971;28;21429;-76
2023/04/25 09:43:26;;;;;;;12.37;7.23;;;7.80;91.20;;;;;;5053283;28;20492;-75
2023/04/25 09:45:57;;;;;;;9.17;5.80;;;7.80;91.30;;;;;;5050779;28;20586;-74
2023/04/25 09:48:24;;;;;;;10.03;5.97;;;7.80;91.30;;;;;;5052110;28;20454;-75
2023/04/25 09:51:16;;;;;;;9.10;5.23;;;7.80;91.30;;;;;;5061049;28;20423;-75
2023/04/25 09:53:43;;;;;;;9.53;4.63;;;7.90;90.80;;;;;;5061991;28;20492;-75
2023/04/25 09:56:11;;;;;;;8.77;5.37;;;7.80;89.20;;;;;;5061846;28;20419;-76
2023/04/25 09:58:41;;;;;;;11.10;5.03;;;7.80;88.90;;;;;;5057294;28;20458;-75
2023/04/25 10:01:09;;;;;;;8.60;5.03;;;7.90;89.30;;;;;;5054270;28;20426;-74
2023/04/25 10:03:39;;;;;;;7.77;5.53;;;8.00;89.50;;;;;;5036968;28;20439;-75
2023/04/25 10:06:14;;;;;;;8.30;5.40;;;8.00;89.00;;;;;;5034316;28;20446;-74
2023/04/25 10:08:40;;;;;;;9.37;5.53;;;8.10;89.60;;;;;;5032301;28;20482;-75
2023/04/25 10:11:08;;;;;;;10.60;5.10;;;8.20;90.10;;;;;;5032517;28;20411;-75
2023/04/25 10:13:35;;;;;;;7.47;3.77;;;8.30;90.30;;;;;;5052563;28;20481;-75
2023/04/25 10:16:04;;;;;;;4.90;3.27;;;8.20;89.90;;;;;;5052978;28;20422;-74
2023/04/25 10:18:31;;;;;;;4.63;3.03;;;8.20;88.10;;;;;;5050242;28;20459;-75
2023/04/25 10:20:59;;;;;;;6.37;3.73;;;8.00;87.60;;;;;;5055440;28;20469;-75
2023/04/25 10:23:26;;;;;;;7.97;3.10;;;8.00;87.60;;;;;;5031805;28;20439;-75
2023/04/25 10:25:52;;;;;;;4.90;2.90;;;7.90;87.40;;;;;;5052874;28;20430;-76
2023/04/25 10:28:19;;;;;;;4.80;3.37;;;7.80;87.60;;;;;;5049828;28;20462;-75
2023/04/25 10:31:01;;;;;;;4.23;3.07;;;7.90;88.40;;;;;;5053007;28;20421;-76
2023/04/25 10:33:34;;;;;;;5.43;3.60;;;8.10;88.70;;;;;;5052649;28;20453;-76
2023/04/25 10:36:12;;;;;;;4.90;3.73;;;8.20;88.60;;;;;;5059412;28;20413;-74
2023/04/25 10:38:38;;;;;;;5.43;3.40;;;8.30;88.60;;;;;;5044014;28;20555;-75
2023/04/25 10:41:08;;;;;;;5.50;3.63;;;8.30;88.00;;;;;;5052127;28;20424;-76
2023/04/25 10:43:38;;;;;;;3.90;2.47;;;8.20;87.70;;;;;;5052411;28;20526;-77
2023/04/25 10:46:26;;;;;;;3.53;2.30;;;8.10;87.00;;;;;;5052211;28;20497;-76
2023/04/25 10:49:02;;;;;;;3.43;2.00;;;8.00;86.90;;;;;;5047223;28;20508;-75
2023/04/25 10:51:32;;;;;;;3.80;2.50;;;7.90;87.00;;;;;;5051960;28;20461;-76
2023/04/25 10:54:03;;;;;;;4.27;3.00;;;8.00;87.10;;;;;;5050614;28;20500;-75
2023/04/25 10:56:31;;;;;;;5.33;3.10;;;7.80;85.30;;;;;;5049967;28;20454;-75
2023/04/25 10:59:05;;;;;;;9.60;5.10;;;7.70;85.70;;;;;;5049047;28;20567;-74
2023/04/25 11:01:39;;;;;;;7.10;4.17;;;7.70;86.60;;;;;;5056696;28;20448;-74
2023/04/25 11:04:06;;;;;;;7.17;4.33;;;7.50;85.70;;;;;;5033265;28;20435;-77
2023/04/25 11:07:03;;;;;;;13.33;4.73;;;7.50;86.90;;;;;;5063528;28;20909;-77
2023/04/25 11:09:29;;;;;;;6.33;4.27;;;7.60;87.10;;;;;;5054458;28;20443;-76
2023/04/25 11:11:58;;;;;;;6.27;3.40;;;7.50;86.90;;;;;;5051718;28;20470;-75
2023/04/25 11:14:24;;;;;;;6.37;2.90;;;7.60;87.10;;;;;;5051938;28;20428;-77
2023/04/25 11:16:59;;;;;;;7.10;3.57;;;7.70;85.90;;;;;;5051484;28;20411;-77
2023/04/25 11:19:26;;;;;;;113.43;19.00;;;7.70;85.60;;;;;;5048478;28;20537;-77
2023/04/25 11:21:59;;;;;;;219.03;32.53;;;7.80;85.70;;;;;;5050855;28;20427;-76
2023/04/25 11:24:29;;;;;;;10.70;5.10;;;8.00;86.30;;;;;;5051142;28;20418;-77
2023/04/25 11:26:55;;;;;;;216.20;27.57;;;8.10;85.70;;;;;;5033753;28;20523;-77
2023/04/25 11:29:28;;;;;;;231.53;30.97;;;8.20;85.30;;;;;;5032065;28;20573;-76
2023/04/25 11:31:57;;;;;;;8.67;3.70;;;8.30;85.20;;;;;;5045676;28;20192;-78
2023/04/25 11:34:25;;;;;;;7.17;3.50;;;8.30;83.10;;;;;;5048389;28;20426;-77
2023/04/25 11:36:51;;;;;;;103.30;17.20;;;8.20;81.20;;;;;;5044878;28;20518;-78
2023/04/25 11:39:21;;;;;;;65.07;12.73;;;8.40;81.70;;;;;;5047370;28;21030;-76
2023/04/25 11:41:47;;;;;;;9.53;3.30;;;8.60;81.50;;;;;;5050793;28;20443;-77
2023/04/25 11:44:15;;;;;;;79.83;12.47;;;8.60;80.60;;;;;;5050401;28;20522;-77
2023/04/25 11:46:42;;;;;;;38.53;8.97;;;8.70;80.60;;;;;;5050854;28;20455;-78
2023/04/25 11:49:08;;;;;;;7.53;3.67;;;8.60;79.50;;;;;;5047525;28;20976;-76
2023/04/25 11:51:44;;;;;;;36.30;6.63;;;8.40;80.00;;;;;;5051226;28;20454;-79
2023/04/25 11:54:11;;;;;;;10.27;3.67;;;8.50;81.50;;;;;;5047879;28;20636;-75
2023/04/25 11:56:37;;;;;;;8.90;4.37;;;8.20;81.90;;;;;;5050204;28;20431;-77
2023/04/25 11:59:05;;;;;;;7.27;3.90;;;8.10;83.30;;;;;;5048629;28;20450;-79
2023/04/25 12:01:36;;;;;;;5.33;4.27;;;8.20;83.80;;;;;;5054700;28;20419;-76
2023/04/25 12:04:22;;;;;;;8.00;4.60;;;8.30;83.30;;;;;;5049234;28;20466;-77
2023/04/25 12:06:52;;;;;;;7.10;4.63;;;8.40;82.80;;;;;;5053485;28;21004;-76
2023/04/25 12:09:21;;;;;;;7.33;4.60;;;8.50;82.50;;;;;;5051288;28;20450;-76
2023/04/25 12:11:55;;;;;;;5.63;4.53;;;8.60;83.00;;;;;;5052959;28;20470;-77
2023/04/25 12:14:35;;;;;;;7.27;4.40;;;8.70;82.50;;;;;;5051846;28;20502;-77
2023/04/25 12:17:03;;;;;;;7.73;4.83;;;8.80;82.20;;;;;;5052745;28;20418;-74
2023/04/25 12:19:33;;;;;;;8.00;4.70;;;8.90;81.80;;;;;;5053095;28;20807;-78
2023/04/25 12:22:01;;;;;;;10.07;5.30;;;9.00;81.80;;;;;;5054965;28;20415;-76
2023/04/25 12:24:27;;;;;;;7.23;4.73;;;8.90;81.10;;;;;;5055712;28;20423;-76
2023/04/25 12:27:04;;;;;;;7.50;5.00;;;8.70;80.20;;;;;;5052878;28;20411;-77
2023/04/25 12:29:33;;;;;;;11.10;5.10;;;8.60;80.80;;;;;;5051719;28;20805;-76
2023/04/25 12:32:01;;;;;;;7.83;4.70;;;8.30;81.80;;;;;;5054955;28;20473;-75
2023/04/25 12:34:27;;;;;;;10.87;4.80;;;8.40;82.80;;;;;;5054112;28;20933;-76
2023/04/25 12:36:53;;;;;;;8.43;5.10;;;8.30;83.00;;;;;;5062488;28;20419;-75
2023/04/25 12:39:23;;;;;;;9.47;5.67;;;8.30;83.70;;;;;;5054669;28;20539;-76
2023/04/25 12:41:50;;;;;;;13.97;7.20;;;8.20;85.00;;;;;;5057736;28;20476;-76
2023/04/25 12:44:16;;;;;;;10.03;5.80;;;8.40;85.70;;;;;;5058342;28;20933;-75
2023/04/25 12:46:42;;;;;;;13.43;5.90;;;8.40;85.50;;;;;;5060760;28;20422;-76
2023/04/25 12:49:08;;;;;;;11.27;5.20;;;8.50;86.00;;;;;;5061086;28;20455;-74
2023/04/25 12:51:35;;;;;;;8.93;5.60;;;8.60;86.00;;;;;;5068129;28;20208;-76
2023/04/25 12:54:02;;;;;;;14.33;6.77;;;8.90;86.20;;;;;;5069096;28;20773;-75